Latest Weather Observations for Noonamah

IDD60901

Issued at 7:05 pm CST Monday 24 November 2014 (issued every 10 minutes, with the page automatically refreshed every 10 minutes)

About weather observations | Map of Darwin area stations | Latest observations for Darwin area | Other Formats
Station Details ID: 014314 Name: NOONAMAH AIRSTRIP Lat: -12.61 Lon: 131.05 Height: 17.5 m
Data from the previous 72 hours. | See also: Recent months for locations in Northern Territory
Date/Time
CST
Tmp

°C
App
Tmp
°C
Dew
Point
°C
Rel
Hum
%
Delta-T

°C
Wind Press
QNH
hPa
Press
MSL
hPa
Rain
since
9 am
mm
Dir
 
Spd
km/h
Gust
km/h
Spd
kts
Gust
kts
24/07:00pm 25.3 29.0 24.6 96 0.5 SSE 13 19 7 10 1009.3 1009.1 6.0
24/06:30pm 25.3 26.0 23.7 91 1.1 SW 26 48 14 26 1007.9 1007.7 3.6
24/06:25pm 25.6 25.6 23.7 89 1.3 SW 30 48 16 26 1007.8 1007.6 3.2
24/06:16pm 27.4 28.9 23.0 77 3.0 S 20 37 11 20 1007.5 1007.3 2.4
24/06:00pm 32.5 34.4 21.4 52 7.5 WNW 13 17 7 9 1006.9 1006.7 2.4
24/05:30pm 33.1 35.0 20.6 47 8.4 NW 11 19 6 10 1006.0 1005.8 2.4
24/05:00pm 33.2 36.1 20.7 47 8.4 N 6 19 3 10 1005.3 1005.1 2.4
24/04:30pm 31.7 36.2 24.0 63 5.4 NE 7 9 4 5 1005.5 1005.3 2.4
24/04:00pm 33.3 36.3 23.3 55 6.9 NNW 13 22 7 12 1005.5 1005.3 0.6
24/03:30pm 31.7 36.6 25.3 69 4.5 NNE 9 20 5 11 1005.2 1005.0 0.2
24/03:00pm 34.1 37.7 23.8 55 7.2 NNW 11 20 6 11 1005.7 1005.5 0.2
24/02:30pm 34.4 36.9 22.5 50 8.2 NW 13 19 7 10 1006.0 1005.8 0.0
24/02:00pm 34.5 36.1 22.2 48 8.4 NNW 17 26 9 14 1006.4 1006.2 0.0
24/01:30pm 36.2 38.8 20.0 38 10.9 NW 6 13 3 7 1007.1 1006.9 0.0
24/01:00pm 35.3 38.1 20.4 41 10.0 E 6 11 3 6 1008.3 1008.1 0.0
24/12:30pm 34.8 37.7 20.7 43 9.5 NE 6 11 3 6 1008.8 1008.6 0.0
24/12:00pm 34.5 37.5 21.2 46 9.0 SW 7 11 4 6 1009.4 1009.2 0.0
24/11:30am 33.3 36.4 21.1 48 8.2 NNW 6 11 3 6 1009.8 1009.6 0.0
24/11:00am 33.2 36.1 21.0 48 8.2 WNW 7 13 4 7 1010.3 1010.1 0.0
24/10:30am 32.9 36.4 21.1 50 7.9 N 4 11 2 6 1010.5 1010.3 0.0
24/10:00am 32.1 35.5 21.0 52 7.4 E 4 6 2 3 1010.6 1010.4 0.0
24/09:30am 31.3 34.5 21.2 55 6.8 NNW 6 9 3 5 1010.8 1010.6 0.0
24/09:00am 31.6 35.6 22.0 56 6.5 N 4 6 2 3 1010.6 1010.4 0.0
24/08:30am 30.3 34.8 23.0 65 5.0 WNW 4 6 2 3 1010.5 1010.3 0.0
24/08:00am 29.6 34.3 23.3 69 4.3 NNE 4 6 2 3 1010.5 1010.3 0.0
24/07:30am 28.5 33.8 23.0 72 3.8 CALM 0 2 0 1 1010.4 1010.2 0.0
24/07:00am 27.3 32.9 23.5 80 2.6 CALM 0 4 0 2 1010.2 1010.0 0.0
24/06:30am 25.8 31.2 23.3 86 1.7 CALM 0 0 0 0 1009.6 1009.4 0.0
24/06:00am 25.6 30.2 23.1 86 1.7 NE 4 4 2 2 1009.4 1009.2 0.0
24/05:30am 25.9 31.4 23.4 86 1.7 CALM 0 0 0 0 1009.3 1009.1 0.0
24/05:00am 26.1 31.1 23.2 84 2.0 N 2 4 1 2 1009.0 1008.8 0.0
24/04:30am 26.6 32.0 23.3 82 2.3 CALM 0 2 0 1 1008.9 1008.7 0.0
24/04:00am 26.7 32.2 23.4 82 2.3 CALM 0 0 0 0 1008.8 1008.6 0.0
24/03:30am 27.1 32.5 23.3 80 2.6 CALM 0 0 0 0 1008.9 1008.7 0.0
24/03:00am 27.5 33.1 23.5 79 2.7 CALM 0 2 0 1 1008.9 1008.7 0.0
24/02:30am 28.0 33.6 23.6 77 3.0 CALM 0 0 0 0 1009.1 1008.9 0.0
24/02:00am 28.3 33.8 24.1 78 2.9 N 2 6 1 3 1009.1 1008.9 0.0
24/01:30am 28.7 33.8 24.7 79 2.8 N 6 7 3 4 1009.4 1009.2 0.0
24/01:00am 29.4 35.3 25.4 79 2.8 WNW 4 6 2 3 1009.6 1009.4 0.0
24/12:30am 29.6 35.2 25.4 78 3.0 NW 6 9 3 5 1009.5 1009.3 0.0
24/12:00am 29.8 35.3 25.3 77 3.2 NW 6 11 3 6 1009.5 1009.3 0.0
 
Date/Time
CST
Tmp

°C
App
Tmp
°C
Dew
Point
°C
Rel
Hum
%
Delta-T

°C
Wind Press
QNH
hPa
Press
MSL
hPa
Rain
since
9 am
mm
Dir
 
Spd
km/h
Gust
km/h
Spd
kts
Gust
kts
23/11:30pm 30.0 35.3 25.3 76 3.3 NW 7 11 4 6 1009.4 1009.2 0.0
23/11:00pm 30.2 34.8 24.8 73 3.8 NNW 9 13 5 7 1009.4 1009.2 0.0
23/10:30pm 30.3 34.6 22.7 64 5.2 NNW 4 6 2 3 1009.1 1008.9 0.0
23/10:00pm 30.3 34.0 22.2 62 5.5 N 6 7 3 4 1008.9 1008.7 0.0
23/09:30pm 30.8 34.0 21.6 58 6.2 NNW 7 9 4 5 1008.4 1008.2 0.0
23/09:00pm 31.2 34.5 20.8 54 7.0 NW 4 7 2 4 1008.3 1008.1 0.0
23/08:30pm 31.7 34.9 20.6 51 7.4 NNW 4 7 2 4 1007.9 1007.7 0.0
23/08:00pm 32.1 35.0 20.7 51 7.6 N 6 9 3 5 1007.6 1007.4 0.0
23/07:30pm 32.9 35.5 20.4 47 8.4 NNE 7 11 4 6 1007.0 1006.8 0.0
23/07:00pm 33.5 35.7 20.3 46 8.8 N 9 15 5 8 1006.5 1006.3 0.0
23/06:30pm 34.4 36.4 20.7 44 9.2 N 11 19 6 10 1006.2 1006.0 0.0
23/06:00pm 35.6 37.6 21.5 44 9.6 NNE 13 20 7 11 1006.0 1005.8 0.0
23/05:30pm 36.2 37.5 20.8 40 10.4 N 15 24 8 13 1005.5 1005.3 0.0
23/05:00pm 37.3 39.6 21.4 39 10.9 NNW 11 17 6 9 1005.6 1005.4 0.0
23/04:30pm 37.3 40.3 23.4 45 9.7 NNW 13 26 7 14 1005.9 1005.7 0.0
23/04:00pm 36.5 38.6 23.7 47 9.0 NW 19 26 10 14 1006.1 1005.9 0.0
23/03:30pm 36.7 39.3 23.9 47 9.0 NW 17 30 9 16 1006.5 1006.3 0.0
23/03:00pm 36.8 39.8 24.0 48 9.0 NW 15 20 8 11 1006.7 1006.5 0.0
23/02:30pm 38.1 38.9 19.0 32 12.7 ENE 13 22 7 12 1007.2 1007.0 0.0
23/02:00pm 37.6 39.9 19.5 34 12.1 E 6 15 3 8 1007.7 1007.5 0.0
23/01:30pm 37.7 39.5 19.6 34 12.1 SE 9 19 5 10 1008.1 1007.9 0.0
23/01:00pm 35.7 37.7 20.0 39 10.5 ENE 9 19 5 10 1008.7 1008.5 0.0
23/12:30pm 36.0 38.7 20.7 41 10.3 SE 7 17 4 9 1009.4 1009.2 0.0
23/12:00pm 35.7 38.3 21.2 43 9.9 E 9 17 5 9 1009.9 1009.7 0.0
23/11:30am 35.1 38.3 21.7 45 9.1 E 7 17 4 9 1010.4 1010.2 0.0
23/11:00am 33.8 36.9 22.2 50 7.9 E 9 15 5 8 1010.7 1010.5 0.0
23/10:30am 33.4 36.9 22.2 52 7.7 N 7 13 4 7 1011.1 1010.9 0.0
23/10:00am 32.2 35.6 21.7 54 7.1 ESE 6 11 3 6 1011.3 1011.1 0.0
23/09:30am 32.1 36.1 22.8 58 6.4 ESE 6 11 3 6 1011.3 1011.1 0.0
23/09:00am 30.9 34.6 22.5 61 5.7 ENE 7 11 4 6 1011.4 1011.2 0.0
23/08:30am 29.8 33.9 23.0 67 4.7 NNE 6 11 3 6 1011.4 1011.2 0.0
23/08:00am 29.1 33.2 23.3 71 4.0 NNE 7 13 4 7 1011.5 1011.3 0.0
23/07:30am 27.0 32.0 23.9 83 2.1 NNE 4 6 2 3 1011.2 1011.0 0.0
23/07:00am 26.4 31.4 23.9 86 1.7 ENE 4 6 2 3 1011.0 1010.8 0.0
23/06:30am 25.9 31.3 23.9 89 1.4 NE 2 4 1 2 1010.5 1010.3 0.0
23/06:00am 25.8 31.2 23.8 89 1.4 NNE 2 4 1 2 1010.0 1009.8 0.0
23/05:30am 26.2 31.8 24.2 89 1.4 NE 2 4 1 2 1009.8 1009.6 0.0
23/05:00am 26.6 32.3 24.4 88 1.5 NE 2 2 1 1 1009.7 1009.5 0.0
23/04:30am 26.7 32.4 24.4 87 1.6 NNE 2 2 1 1 1009.5 1009.3 0.0
23/04:00am 26.6 31.7 24.1 86 1.7 NE 4 6 2 3 1009.3 1009.1 0.0
23/03:30am 27.6 33.2 24.2 82 2.4 ENE 2 4 1 2 1009.1 1008.9 0.0
23/03:00am 27.8 33.1 24.4 82 2.4 ENE 4 4 2 2 1009.3 1009.1 0.0
23/02:30am 28.5 34.6 24.5 79 2.8 CALM 0 0 0 0 1009.3 1009.1 0.0
23/02:00am 28.6 34.3 24.4 78 2.9 NW 2 4 1 2 1009.4 1009.2 0.0
23/01:30am 28.9 34.3 24.5 77 3.1 NW 4 4 2 2 1009.7 1009.5 0.0
23/01:00am 29.1 34.6 24.7 77 3.1 NW 4 7 2 4 1010.1 1009.9 0.0
23/12:30am 28.5 34.0 24.7 80 2.7 NNW 4 7 2 4 1010.3 1010.1 0.0
23/12:00am 28.5 33.9 24.5 79 2.8 N 4 6 2 3 1010.5 1010.3 0.0
 
Date/Time
CST
Tmp

°C
App
Tmp
°C
Dew
Point
°C
Rel
Hum
%
Delta-T

°C
Wind Press
QNH
hPa
Press
MSL
hPa
Rain
since
9 am
mm
Dir
 
Spd
km/h
Gust
km/h
Spd
kts
Gust
kts
22/11:30pm 28.9 34.0 24.7 78 2.9 NNW 6 7 3 4 1010.4 1010.2 0.0
22/11:00pm 28.4 33.9 24.6 80 2.6 N 4 7 2 4 1010.3 1010.1 0.0
22/10:30pm 28.2 33.0 24.2 79 2.8 NNE 6 11 3 6 1010.1 1009.9 0.0
22/10:00pm 28.1 33.2 24.1 79 2.8 N 4 6 2 3 1009.9 1009.7 0.0
22/09:30pm 28.3 33.2 23.7 76 3.2 NE 4 6 2 3 1009.7 1009.5 0.0
22/09:00pm 28.9 34.0 23.3 72 3.8 NNE 2 4 1 2 1009.4 1009.2 0.0
22/08:30pm 29.7 34.0 22.7 66 4.8 NW 4 4 2 2 1009.2 1009.0 0.0
22/08:00pm 29.8 34.2 22.8 66 4.8 W 4 6 2 3 1009.1 1008.9 0.0
22/07:30pm 29.7 33.8 22.9 67 4.7 WSW 6 7 3 4 1008.7 1008.5 0.0
22/07:00pm 30.1 33.8 22.5 63 5.2 SSW 7 15 4 8 1008.6 1008.4 0.0
22/06:30pm 31.8 35.1 21.9 55 6.7 SSW 7 13 4 7 1008.2 1008.0 0.0
22/06:00pm 31.7 35.9 21.8 55 6.7 N 2 4 1 2 1007.6 1007.4 0.0
22/05:30pm 31.3 35.3 22.0 57 6.3 NW 4 7 2 4 1007.4 1007.2 0.0
22/05:00pm 31.2 34.7 21.9 57 6.3 NW 6 9 3 5 1006.8 1006.6 0.0
22/04:30pm 29.9 32.7 22.3 63 5.2 N 11 17 6 9 1006.7 1006.5 0.0
22/04:00pm 30.7 32.3 22.8 62 5.4 N 19 32 10 17 1006.7 1006.5 0.0
22/03:30pm 34.0 36.5 23.1 53 7.6 NW 15 22 8 12 1007.0 1006.8 0.0
22/03:00pm 34.7 37.6 23.1 51 8.1 NNW 13 22 7 12 1007.2 1007.0 0.0
22/02:30pm 36.0 39.3 22.5 45 9.3 NNW 9 19 5 10 1007.8 1007.6 0.0
22/02:00pm 35.5 39.3 22.4 46 9.0 W 6 13 3 7 1008.3 1008.1 0.0
22/01:30pm 36.8 38.5 19.3 36 11.6 ENE 9 17 5 9 1008.8 1008.6 0.0
22/01:00pm 36.0 38.9 20.7 41 10.3 ENE 6 15 3 8 1009.3 1009.1 0.0
22/12:30pm 36.1 38.5 20.8 41 10.4 E 9 20 5 11 1009.7 1009.5 0.0
22/12:00pm 35.2 38.3 21.5 45 9.3 NE 7 17 4 9 1010.1 1009.9 0.0
22/11:30am 33.7 36.6 21.8 49 8.1 NE 9 19 5 10 1010.8 1010.6 0.0
22/11:00am 33.6 37.0 22.7 53 7.5 E 9 17 5 9 1011.3 1011.1 0.0
22/10:30am 32.8 36.0 22.3 54 7.2 NE 9 19 5 10 1011.7 1011.5 0.0
22/10:00am 33.9 36.9 22.0 49 8.1 E 9 17 5 9 1011.6 1011.4 0.0
22/09:30am 32.5 35.9 22.0 54 7.1 SE 7 15 4 8 1011.9 1011.7 0.0
22/09:00am 30.9 34.8 22.5 61 5.7 NNE 6 9 3 5 1011.7 1011.5 0.0
22/08:30am 30.8 35.3 22.9 62 5.4 N 4 9 2 5 1011.6 1011.4 0.0
22/08:00am 29.3 34.5 24.2 74 3.5 NNE 4 6 2 3 1011.3 1011.1 0.0
22/07:30am 28.1 33.0 23.7 77 3.0 NE 4 6 2 3 1011.0 1010.8 0.0
22/07:00am 27.1 32.8 23.8 82 2.3 CALM 0 0 0 0 1010.5 1010.3 0.0
22/06:30am 26.2 31.1 23.7 86 1.7 ENE 4 6 2 3 1010.0 1009.8 0.0
22/06:00am 26.1 30.8 23.4 85 1.8 E 4 4 2 2 1009.7 1009.5 0.0
22/05:30am 26.2 30.9 23.3 84 2.0 E 4 6 2 3 1009.5 1009.3 0.0
22/05:00am 26.5 32.0 23.4 83 2.1 CALM 0 0 0 0 1009.2 1009.0 0.0
22/04:30am 27.0 32.7 23.7 82 2.3 CALM 0 0 0 0 1008.9 1008.7 0.0
22/04:00am 26.6 32.0 23.3 82 2.3 CALM 0 0 0 0 1008.7 1008.5 0.0
22/03:30am 27.3 32.7 23.3 79 2.7 CALM 0 0 0 0 1008.4 1008.2 0.0
22/03:00am 27.4 32.1 23.4 79 2.7 NNW 4 4 2 2 1008.3 1008.1 0.0
22/02:30am 27.7 33.3 23.5 78 2.9 CALM 0 0 0 0 1008.4 1008.2 0.0
22/02:00am 28.0 33.2 23.6 77 3.0 N 2 4 1 2 1008.6 1008.4 0.0
22/01:30am 28.2 33.2 23.8 77 3.0 N 4 6 2 3 1008.7 1008.5 0.0
22/01:00am 28.8 33.6 24.1 76 3.3 NNW 6 7 3 4 1009.0 1008.8 0.0
22/12:30am 28.9 33.9 24.5 77 3.1 N 6 9 3 5 1009.5 1009.3 0.0
22/12:00am 29.1 34.3 24.2 75 3.4 NW 4 4 2 2 1009.9 1009.7 0.0
 
Date/Time
CST
Tmp

°C
App
Tmp
°C
Dew
Point
°C
Rel
Hum
%
Delta-T

°C
Wind Press
QNH
hPa
Press
MSL
hPa
Rain
since
9 am
mm
Dir
 
Spd
km/h
Gust
km/h
Spd
kts
Gust
kts
21/11:30pm 29.3 34.1 24.2 74 3.5 WNW 6 7 3 4 1010.2 1010.0 0.0
21/11:00pm 29.6 34.8 24.2 73 3.8 WNW 4 6 2 3 1010.4 1010.2 0.0
21/10:30pm 29.7 34.5 24.1 72 3.9 NW 6 9 3 5 1010.2 1010.0 0.0
21/10:00pm 29.9 34.6 24.3 72 3.9 NW 7 11 4 6 1009.6 1009.4 0.0
21/09:30pm 30.3 34.7 24.4 70 4.1 NW 9 13 5 7 1009.2 1009.0 0.0
21/09:00pm 30.5 35.0 23.9 68 4.6 N 7 15 4 8 1008.9 1008.7 0.0
21/08:30pm 31.4 33.8 20.0 50 7.5 N 7 11 4 6 1008.3 1008.1 0.0
21/08:00pm 32.3 33.7 17.4 41 9.5 N 6 11 3 6 1008.2 1008.0 0.0
21/07:30pm 33.1 33.4 16.0 35 10.8 N 9 15 5 8 1007.7 1007.5 0.0

Latest Capital City Observations: Canberra | Sydney | Melbourne | Brisbane | Adelaide | Perth | Hobart | Darwin

Other Formats:

Comma delimited format used in spreadsheet applications
http://www.bom.gov.au/fwo/IDD60901/IDD60901.94105.axf

JavaScript Object Notation format (JSON) in row-major order
http://www.bom.gov.au/fwo/IDD60901/IDD60901.94105.json